African Highway — 3EOD8 — position and weather

sailwx.info

Track history (hours):
 
Tides and Currents Weather Stations Pressure Air Temp Water Temp Dewpoint Dewpoint Depression Visibility Wind Speed Wind Dir Waves Ship Positions

African Highway

Last reported at 2014-Sep-02 21:31 UTC. Time now 2014-Sep-03 00:11 UTC.
Position N 54°03' E 004°42'.

Length 154.5 m; beam 27.6 m.

Type: Cargo ship. MMSI: 353633000.

Date/timePositionNaut miles runAvg speedWind from/ knotsBaromVisibWave heightAir tempDewpointWater temp
2014-Sep-02 21:31N 54°03' E 004°42'1515.7
2014-Sep-02 20:33N 53°59' E 005°07'1616.2
2014-Sep-02 19:33N 53°55' E 005°34'1616.7
2014-Sep-02 18:33N 53°52' E 006°01'1414.2
2014-Sep-02 17:34N 53°41' E 006°17'1414.1
2014-Sep-02 16:33N 53°35' E 006°38'1616.2
2014-Sep-02 15:34N 53°23' E 006°58'8 7.6
2014-Sep-02 14:32N 53°20' E 007°10'0 0.0
2014-Sep-02 13:32N 53°20' E 007°10'0 0.0
2014-Sep-02 12:32N 53°20' E 007°10'0 0.0
2014-Sep-02 11:32N 53°20' E 007°10'0 0.0
2014-Sep-02 10:32N 53°20' E 007°10'0 0.0
2014-Sep-02 09:32N 53°20' E 007°10'0 0.0
2014-Sep-02 08:32N 53°20' E 007°10'0 0.0
2014-Sep-02 07:26N 53°20' E 007°10'0 0.0
2014-Sep-02 06:32N 53°20' E 007°10'0 0.0
2014-Sep-02 05:32N 53°20' E 007°10'0 0.0
2014-Sep-02 04:29N 53°20' E 007°10'0 0.0
2014-Sep-02 03:32N 53°20' E 007°10'0 0.0
2014-Sep-02 02:32N 53°20' E 007°10'0 0.0
2014-Sep-02 01:32N 53°20' E 007°10'0 0.0
2014-Sep-02 00:32N 53°20' E 007°10'0 0.0
2014-Sep-01 23:29N 53°20' E 007°10'0 0.0
2014-Sep-01 22:32N 53°20' E 007°10'0 0.0
2014-Sep-01 21:32N 53°20' E 007°10'0 0.0
2014-Sep-01 20:29N 53°20' E 007°10'0 0.0
2014-Sep-01 19:32N 53°20' E 007°10'0 0.0
2014-Sep-01 18:32N 53°20' E 007°10'0 0.0
2014-Sep-01 17:32N 53°20' E 007°10'0 0.0
2014-Sep-01 16:32N 53°20' E 007°10'0 0.0
2014-Sep-01 15:32N 53°20' E 007°10'0 0.0
2014-Sep-01 14:32N 53°20' E 007°10'6 5.8
2014-Sep-01 13:33N 53°20' E 007°00'1515.0
2014-Sep-01 12:34N 53°31' E 006°45'1615.9
2014-Sep-01 11:33N 53°38' E 006°20'1313.1
2014-Sep-01 10:34N 53°39' E 005°58'1312.6
2014-Sep-01 09:33N 53°42' E 005°38'1615.7
2014-Sep-01 08:33N 53°54' E 005°21'1715.7
2014-Sep-01 07:29N 53°60' E 004°55'12515.4
2014-Aug-31 23:24N 53°43' E 001°25'1416.3
2014-Aug-31 22:34N 53°38' E 001°04'1616.0
2014-Aug-31 21:33N 53°34' E 000°38'1514.7
2014-Aug-31 20:33N 53°33' E 000°13'9 8.9
2014-Aug-31 19:34N 53°35' W 000°01'2 1.5
2014-Aug-31 18:33N 53°35' W 000°04'0 0.0
2014-Aug-31 17:33N 53°35' W 000°04'0 0.0
2014-Aug-31 16:33N 53°35' W 000°04'0 0.0
2014-Aug-31 15:33N 53°35' W 000°04'0 0.0
2014-Aug-31 14:33N 53°35' W 000°04'0 0.0
2014-Aug-31 13:33N 53°35' W 000°04'0 0.0
2014-Aug-31 12:33N 53°35' W 000°04'0 0.0
2014-Aug-31 11:24N 53°35' W 000°04'0 0.0
2014-Aug-31 10:30N 53°35' W 000°04'0 0.0
2014-Aug-31 09:33N 53°35' W 000°04'0 0.0
2014-Aug-31 08:30N 53°35' W 000°04'0 0.0
2014-Aug-31 07:33N 53°35' W 000°04'0 0.0
2014-Aug-31 06:33N 53°35' W 000°04'0 0.0
2014-Aug-31 05:30N 53°35' W 000°04'0 0.0
2014-Aug-31 04:33N 53°35' W 000°04'0 0.0
2014-Aug-31 03:33N 53°35' W 000°04'0 0.0
2014-Aug-31 02:33N 53°35' W 000°04'0 0.0
2014-Aug-31 01:21N 53°35' W 000°04'0 0.0
2014-Aug-31 00:33N 53°35' W 000°04'0 0.0
2014-Aug-30 23:33N 53°35' W 000°04'0 0.0
2014-Aug-30 22:24N 53°35' W 000°04'0 0.0
2014-Aug-30 21:27N 53°35' W 000°04'0 0.0
2014-Aug-30 20:33N 53°35' W 000°04'3 2.9
2014-Aug-30 19:33N 53°35' E 000°01'10 9.8
2014-Aug-30 18:33N 53°33' E 000°17'5 3.5
2014-Aug-30 17:09N 53°35' E 000°24'0 0.0
2014-Aug-30 15:09N 53°35' E 000°24'0 0.0
2014-Aug-30 14:33N 53°35' E 000°24'0 0.1
2014-Aug-30 13:33N 53°35' E 000°24'0 0.0
2014-Aug-30 12:33N 53°35' E 000°24'0 0.0
2014-Aug-30 11:33N 53°35' E 000°24'0 0.0
2014-Aug-30 09:06N 53°35' E 000°24'1 1.2
2014-Aug-30 08:09N 53°35' E 000°26'4612.5
2014-Aug-30 04:28N 53°48' E 001°41'12514.0
2014-Aug-29 19:30N 53°60' E 005°12'1314.1
2014-Aug-29 18:33N 53°56' E 005°35'1514.8
2014-Aug-29 17:33N 53°53' E 005°59'1513.5
2014-Aug-29 16:26N 53°43' E 006°18'1011.0
2014-Aug-29 15:30N 53°37' E 006°32'1617.4
2014-Aug-29 14:34N 53°27' E 006°54'1111.0
2014-Aug-29 13:33N 53°20' E 007°08'2 1.8
2014-Aug-29 12:33N 53°20' E 007°11'0 0.0
2014-Aug-29 11:33N 53°20' E 007°11'0 0.0
2014-Aug-29 10:33N 53°20' E 007°11'0 0.0
2014-Aug-29 09:33N 53°20' E 007°11'0 0.0
2014-Aug-29 08:27N 53°20' E 007°11'0 0.0
2014-Aug-29 07:33N 53°20' E 007°11'0 0.0
2014-Aug-29 06:33N 53°20' E 007°11'0 0.0
2014-Aug-29 05:33N 53°20' E 007°11'0 0.0
2014-Aug-29 04:30N 53°20' E 007°11'0 0.0
2014-Aug-29 03:33N 53°20' E 007°11'0 0.0
2014-Aug-29 02:30N 53°20' E 007°11'2 2.0
2014-Aug-29 01:33N 53°20' E 007°08'9 9.2
2014-Aug-29 00:34N 53°26' E 006°56'1716.7
2014-Aug-28 23:33N 53°36' E 006°34'1211.7
2014-Aug-28 22:33N 53°38' E 006°14'17 8.2
2014-Aug-28 20:28N 53°35' E 005°46'18314.2
2014-Aug-28 07:33N 53°34' E 000°38'1414.5
2014-Aug-28 06:34N 53°33' E 000°14'9 9.0
2014-Aug-28 05:34N 53°35' W 000°00'2 2.1
2014-Aug-28 04:34N 53°35' W 000°04'0 0.0
2014-Aug-28 03:27N 53°35' W 000°04'0 0.0
2014-Aug-28 02:31N 53°35' W 000°04'0 0.0
2014-Aug-28 01:31N 53°35' W 000°04'0 0.0
2014-Aug-28 00:33N 53°35' W 000°04'0 0.0
2014-Aug-27 23:31N 53°35' W 000°04'0 0.0
2014-Aug-27 22:30N 53°35' W 000°04'0 0.0
2014-Aug-27 21:33N 53°35' W 000°04'0 0.0
2014-Aug-27 20:31N 53°35' W 000°04'0 0.0
2014-Aug-27 19:30N 53°35' W 000°04'0 0.1
2014-Aug-27 18:34N 53°35' W 000°04'5 5.1
2014-Aug-27 17:34N 53°35' E 000°05'9 9.4
2014-Aug-27 16:33N 53°33' E 000°20'4 3.8
2014-Aug-27 15:32N 53°36' E 000°25'0 0.1
2014-Aug-27 14:23N 53°36' E 000°25'0 0.0
2014-Aug-27 13:32N 53°36' E 000°25'0 0.0
2014-Aug-27 12:32N 53°36' E 000°25'0 0.0
2014-Aug-27 11:23N 53°36' E 000°25'0 0.0
2014-Aug-27 10:32N 53°36' E 000°25'1 1.0
2014-Aug-27 09:33N 53°37' E 000°26'9 8.7
2014-Aug-27 08:33N 53°35' E 000°40'1614.7
2014-Aug-27 07:28N 53°39' E 001°06'1415.2
2014-Aug-27 06:33N 53°44' E 001°28'1515.1
2014-Aug-27 05:33N 53°48' E 001°52'10115.8
2014-Aug-26 23:08N 54°02' E 004°43'915.1
2014-Aug-26 22:33N 53°60' E 004°57'1515.0
2014-Aug-26 21:33N 53°57' E 005°22'1514.7
2014-Aug-26 20:33N 53°54' E 005°46'1513.5
2014-Aug-26 19:25N 53°47' E 006°09'1112.9
2014-Aug-26 18:33N 53°38' E 006°20'1211.7
2014-Aug-26 17:33N 53°34' E 006°39'1414.4
2014-Aug-26 16:33N 53°24' E 006°57'9 9.4
2014-Aug-26 15:33N 53°20' E 007°11'1 0.6
2014-Aug-26 14:21N 53°21' E 007°12'0 0.0
2014-Aug-26 13:33N 53°21' E 007°12'0 0.0
2014-Aug-26 12:30N 53°21' E 007°12'0 0.0
2014-Aug-26 11:33N 53°21' E 007°12'0 0.0
2014-Aug-26 10:24N 53°21' E 007°12'0 0.0
2014-Aug-26 09:33N 53°21' E 007°12'0 0.0
2014-Aug-26 08:33N 53°21' E 007°12'0 0.0
2014-Aug-26 07:33N 53°21' E 007°12'0 0.0
2014-Aug-26 06:33N 53°21' E 007°12'0 0.0
2014-Aug-26 05:33N 53°21' E 007°12'0 0.0
2014-Aug-26 04:30N 53°21' E 007°12'0 0.0
2014-Aug-26 03:30N 53°21' E 007°12'0 0.0
2014-Aug-26 02:33N 53°21' E 007°12'0 0.0
2014-Aug-26 01:33N 53°21' E 007°12'0 0.0
2014-Aug-26 00:30N 53°21' E 007°12'0 0.0
2014-Aug-25 23:33N 53°21' E 007°12'0 0.0
2014-Aug-25 22:33N 53°21' E 007°12'0 0.0
2014-Aug-25 21:33N 53°21' E 007°12'0 0.0
2014-Aug-25 20:33N 53°21' E 007°12'0 0.0
2014-Aug-25 19:33N 53°21' E 007°12'0 0.0
2014-Aug-25 18:33N 53°21' E 007°12'0 0.0
2014-Aug-25 17:33N 53°21' E 007°12'0 0.0
2014-Aug-25 16:33N 53°21' E 007°12'0 0.0
2014-Aug-25 15:33N 53°21' E 007°12'0 0.0
2014-Aug-25 14:30N 53°21' E 007°12'1 0.8
2014-Aug-25 13:34N 53°20' E 007°11'7 7.4
2014-Aug-25 12:34N 53°22' E 006°59'1514.5
2014-Aug-25 11:33N 53°33' E 006°43'1414.5
2014-Aug-25 10:33N 53°38' E 006°20'9 8.7
2014-Aug-25 09:33N 53°40' E 006°06'1615.8
2014-Aug-25 08:34N 53°35' E 005°40'1716.8
2014-Aug-25 07:34N 53°30' E 005°13'1717.2
2014-Aug-25 06:34N 53°24' E 004°46'1716.8
2014-Aug-25 05:33N 53°10' E 004°32'1817.5
2014-Aug-25 04:31N 52°54' E 004°17'1616.9
2014-Aug-25 03:33N 52°41' E 004°00'1717.0
2014-Aug-25 02:34N 52°29' E 003°41'1717.1
2014-Aug-25 01:32N 52°17' E 003°20'1717.0
2014-Aug-25 00:33N 52°05' E 003°02'1616.4
2014-Aug-24 23:33N 51°56' E 002°39'1615.9
2014-Aug-24 22:33N 51°48' E 002°17'1515.4
2014-Aug-24 21:34N 51°39' E 001°57'1514.8
2014-Aug-24 20:34N 51°30' E 001°38'9 9.3
2014-Aug-24 19:34N 51°28' E 001°23'1312.5
2014-Aug-24 18:34N 51°30' E 001°03'1212.4
2014-Aug-24 17:33N 51°26' E 000°44'0 0.2
2014-Aug-24 16:32N 51°26' E 000°44'0 0.0
2014-Aug-24 15:32N 51°26' E 000°44'0 0.0
2014-Aug-24 14:32N 51°26' E 000°44'0 0.0
2014-Aug-24 13:32N 51°26' E 000°44'0 0.0
2014-Aug-24 12:32N 51°26' E 000°44'0 0.0
2014-Aug-24 11:32N 51°26' E 000°44'0 0.0
2014-Aug-24 10:33N 51°26' E 000°44'9 8.6
2014-Aug-24 09:34N 51°29' E 000°57'1716.6
2014-Aug-24 08:34N 51°29' E 001°24'1111.1
2014-Aug-24 07:34N 51°31' E 001°42'1818.0
2014-Aug-24 06:34N 51°41' E 002°06'1817.5
2014-Aug-24 05:33N 51°50' E 002°30'12816.0
2014-Aug-23 21:33N 53°31' E 004°42'  
Track history (hours):
 
Tides and Currents Weather Stations Pressure Air Temp Water Temp Dewpoint Dewpoint Depression Visibility Wind Speed Wind Dir Waves Ship Positions

African Highway

Last reported at 2014-Sep-02 21:31 UTC. Time now 2014-Sep-03 00:11 UTC.
Position N 54°03' E 004°42'.

Length 154.5 m; beam 27.6 m.

Type: Cargo ship. MMSI: 353633000.

Date/timePositionNaut miles runAvg speedWind from/ knotsBaromVisibWave heightAir tempDewpointWater temp
2014-Sep-02 21:31N 54°03' E 004°42'1515.7
2014-Sep-02 20:33N 53°59' E 005°07'1616.2
2014-Sep-02 19:33N 53°55' E 005°34'1616.7
2014-Sep-02 18:33N 53°52' E 006°01'1414.2
2014-Sep-02 17:34N 53°41' E 006°17'1414.1
2014-Sep-02 16:33N 53°35' E 006°38'1616.2
2014-Sep-02 15:34N 53°23' E 006°58'8 7.6
2014-Sep-02 14:32N 53°20' E 007°10'0 0.0
2014-Sep-02 13:32N 53°20' E 007°10'0 0.0
2014-Sep-02 12:32N 53°20' E 007°10'0 0.0
2014-Sep-02 11:32N 53°20' E 007°10'0 0.0
2014-Sep-02 10:32N 53°20' E 007°10'0 0.0
2014-Sep-02 09:32N 53°20' E 007°10'0 0.0
2014-Sep-02 08:32N 53°20' E 007°10'0 0.0
2014-Sep-02 07:26N 53°20' E 007°10'0 0.0
2014-Sep-02 06:32N 53°20' E 007°10'0 0.0
2014-Sep-02 05:32N 53°20' E 007°10'0 0.0
2014-Sep-02 04:29N 53°20' E 007°10'0 0.0
2014-Sep-02 03:32N 53°20' E 007°10'0 0.0
2014-Sep-02 02:32N 53°20' E 007°10'0 0.0
2014-Sep-02 01:32N 53°20' E 007°10'0 0.0
2014-Sep-02 00:32N 53°20' E 007°10'0 0.0
2014-Sep-01 23:29N 53°20' E 007°10'0 0.0
2014-Sep-01 22:32N 53°20' E 007°10'0 0.0
2014-Sep-01 21:32N 53°20' E 007°10'0 0.0
2014-Sep-01 20:29N 53°20' E 007°10'0 0.0
2014-Sep-01 19:32N 53°20' E 007°10'0 0.0
2014-Sep-01 18:32N 53°20' E 007°10'0 0.0
2014-Sep-01 17:32N 53°20' E 007°10'0 0.0
2014-Sep-01 16:32N 53°20' E 007°10'0 0.0
2014-Sep-01 15:32N 53°20' E 007°10'0 0.0
2014-Sep-01 14:32N 53°20' E 007°10'6 5.8
2014-Sep-01 13:33N 53°20' E 007°00'1515.0
2014-Sep-01 12:34N 53°31' E 006°45'1615.9
2014-Sep-01 11:33N 53°38' E 006°20'1313.1
2014-Sep-01 10:34N 53°39' E 005°58'1312.6
2014-Sep-01 09:33N 53°42' E 005°38'1615.7
2014-Sep-01 08:33N 53°54' E 005°21'1715.7
2014-Sep-01 07:29N 53°60' E 004°55'12515.4
2014-Aug-31 23:24N 53°43' E 001°25'1416.3
2014-Aug-31 22:34N 53°38' E 001°04'1616.0
2014-Aug-31 21:33N 53°34' E 000°38'1514.7
2014-Aug-31 20:33N 53°33' E 000°13'9 8.9
2014-Aug-31 19:34N 53°35' W 000°01'2 1.5
2014-Aug-31 18:33N 53°35' W 000°04'0 0.0
2014-Aug-31 17:33N 53°35' W 000°04'0 0.0
2014-Aug-31 16:33N 53°35' W 000°04'0 0.0
2014-Aug-31 15:33N 53°35' W 000°04'0 0.0
2014-Aug-31 14:33N 53°35' W 000°04'0 0.0
2014-Aug-31 13:33N 53°35' W 000°04'0 0.0
2014-Aug-31 12:33N 53°35' W 000°04'0 0.0
2014-Aug-31 11:24N 53°35' W 000°04'0 0.0
2014-Aug-31 10:30N 53°35' W 000°04'0 0.0
2014-Aug-31 09:33N 53°35' W 000°04'0 0.0
2014-Aug-31 08:30N 53°35' W 000°04'0 0.0
2014-Aug-31 07:33N 53°35' W 000°04'0 0.0
2014-Aug-31 06:33N 53°35' W 000°04'0 0.0
2014-Aug-31 05:30N 53°35' W 000°04'0 0.0
2014-Aug-31 04:33N 53°35' W 000°04'0 0.0
2014-Aug-31 03:33N 53°35' W 000°04'0 0.0
2014-Aug-31 02:33N 53°35' W 000°04'0 0.0
2014-Aug-31 01:21N 53°35' W 000°04'0 0.0
2014-Aug-31 00:33N 53°35' W 000°04'0 0.0
2014-Aug-30 23:33N 53°35' W 000°04'0 0.0
2014-Aug-30 22:24N 53°35' W 000°04'0 0.0
2014-Aug-30 21:27N 53°35' W 000°04'0 0.0
2014-Aug-30 20:33N 53°35' W 000°04'3 2.9
2014-Aug-30 19:33N 53°35' E 000°01'10 9.8
2014-Aug-30 18:33N 53°33' E 000°17'5 3.5
2014-Aug-30 17:09N 53°35' E 000°24'0 0.0
2014-Aug-30 15:09N 53°35' E 000°24'0 0.0
2014-Aug-30 14:33N 53°35' E 000°24'0 0.1
2014-Aug-30 13:33N 53°35' E 000°24'0 0.0
2014-Aug-30 12:33N 53°35' E 000°24'0 0.0
2014-Aug-30 11:33N 53°35' E 000°24'0 0.0
2014-Aug-30 09:06N 53°35' E 000°24'1 1.2
2014-Aug-30 08:09N 53°35' E 000°26'4612.5
2014-Aug-30 04:28N 53°48' E 001°41'12514.0
2014-Aug-29 19:30N 53°60' E 005°12'1314.1
2014-Aug-29 18:33N 53°56' E 005°35'1514.8
2014-Aug-29 17:33N 53°53' E 005°59'1513.5
2014-Aug-29 16:26N 53°43' E 006°18'1011.0
2014-Aug-29 15:30N 53°37' E 006°32'1617.4
2014-Aug-29 14:34N 53°27' E 006°54'1111.0
2014-Aug-29 13:33N 53°20' E 007°08'2 1.8
2014-Aug-29 12:33N 53°20' E 007°11'0 0.0
2014-Aug-29 11:33N 53°20' E 007°11'0 0.0
2014-Aug-29 10:33N 53°20' E 007°11'0 0.0
2014-Aug-29 09:33N 53°20' E 007°11'0 0.0
2014-Aug-29 08:27N 53°20' E 007°11'0 0.0
2014-Aug-29 07:33N 53°20' E 007°11'0 0.0
2014-Aug-29 06:33N 53°20' E 007°11'0 0.0
2014-Aug-29 05:33N 53°20' E 007°11'0 0.0
2014-Aug-29 04:30N 53°20' E 007°11'0 0.0
2014-Aug-29 03:33N 53°20' E 007°11'0 0.0
2014-Aug-29 02:30N 53°20' E 007°11'2 2.0
2014-Aug-29 01:33N 53°20' E 007°08'9 9.2
2014-Aug-29 00:34N 53°26' E 006°56'1716.7
2014-Aug-28 23:33N 53°36' E 006°34'1211.7
2014-Aug-28 22:33N 53°38' E 006°14'17 8.2
2014-Aug-28 20:28N 53°35' E 005°46'18314.2
2014-Aug-28 07:33N 53°34' E 000°38'1414.5
2014-Aug-28 06:34N 53°33' E 000°14'9 9.0
2014-Aug-28 05:34N 53°35' W 000°00'2 2.1
2014-Aug-28 04:34N 53°35' W 000°04'0 0.0
2014-Aug-28 03:27N 53°35' W 000°04'0 0.0
2014-Aug-28 02:31N 53°35' W 000°04'0 0.0
2014-Aug-28 01:31N 53°35' W 000°04'0 0.0
2014-Aug-28 00:33N 53°35' W 000°04'0 0.0
2014-Aug-27 23:31N 53°35' W 000°04'0 0.0
2014-Aug-27 22:30N 53°35' W 000°04'0 0.0
2014-Aug-27 21:33N 53°35' W 000°04'0 0.0
2014-Aug-27 20:31N 53°35' W 000°04'0 0.0
2014-Aug-27 19:30N 53°35' W 000°04'0 0.1
2014-Aug-27 18:34N 53°35' W 000°04'5 5.1
2014-Aug-27 17:34N 53°35' E 000°05'9 9.4
2014-Aug-27 16:33N 53°33' E 000°20'4 3.8
2014-Aug-27 15:32N 53°36' E 000°25'0 0.1
2014-Aug-27 14:23N 53°36' E 000°25'0 0.0
2014-Aug-27 13:32N 53°36' E 000°25'0 0.0
2014-Aug-27 12:32N 53°36' E 000°25'0 0.0
2014-Aug-27 11:23N 53°36' E 000°25'0 0.0
2014-Aug-27 10:32N 53°36' E 000°25'1 1.0
2014-Aug-27 09:33N 53°37' E 000°26'9 8.7
2014-Aug-27 08:33N 53°35' E 000°40'1614.7
2014-Aug-27 07:28N 53°39' E 001°06'1415.2
2014-Aug-27 06:33N 53°44' E 001°28'1515.1
2014-Aug-27 05:33N 53°48' E 001°52'10115.8
2014-Aug-26 23:08N 54°02' E 004°43'915.1
2014-Aug-26 22:33N 53°60' E 004°57'1515.0
2014-Aug-26 21:33N 53°57' E 005°22'1514.7
2014-Aug-26 20:33N 53°54' E 005°46'1513.5
2014-Aug-26 19:25N 53°47' E 006°09'1112.9
2014-Aug-26 18:33N 53°38' E 006°20'1211.7
2014-Aug-26 17:33N 53°34' E 006°39'1414.4
2014-Aug-26 16:33N 53°24' E 006°57'9 9.4
2014-Aug-26 15:33N 53°20' E 007°11'1 0.6
2014-Aug-26 14:21N 53°21' E 007°12'0 0.0
2014-Aug-26 13:33N 53°21' E 007°12'0 0.0
2014-Aug-26 12:30N 53°21' E 007°12'0 0.0
2014-Aug-26 11:33N 53°21' E 007°12'0 0.0
2014-Aug-26 10:24N 53°21' E 007°12'0 0.0
2014-Aug-26 09:33N 53°21' E 007°12'0 0.0
2014-Aug-26 08:33N 53°21' E 007°12'0 0.0
2014-Aug-26 07:33N 53°21' E 007°12'0 0.0
2014-Aug-26 06:33N 53°21' E 007°12'0 0.0
2014-Aug-26 05:33N 53°21' E 007°12'0 0.0
2014-Aug-26 04:30N 53°21' E 007°12'0 0.0
2014-Aug-26 03:30N 53°21' E 007°12'0 0.0
2014-Aug-26 02:33N 53°21' E 007°12'0 0.0
2014-Aug-26 01:33N 53°21' E 007°12'0 0.0
2014-Aug-26 00:30N 53°21' E 007°12'0 0.0
2014-Aug-25 23:33N 53°21' E 007°12'0 0.0
2014-Aug-25 22:33N 53°21' E 007°12'0 0.0
2014-Aug-25 21:33N 53°21' E 007°12'0 0.0
2014-Aug-25 20:33N 53°21' E 007°12'0 0.0
2014-Aug-25 19:33N 53°21' E 007°12'0 0.0
2014-Aug-25 18:33N 53°21' E 007°12'0 0.0
2014-Aug-25 17:33N 53°21' E 007°12'0 0.0
2014-Aug-25 16:33N 53°21' E 007°12'0 0.0
2014-Aug-25 15:33N 53°21' E 007°12'0 0.0
2014-Aug-25 14:30N 53°21' E 007°12'1 0.8
2014-Aug-25 13:34N 53°20' E 007°11'7 7.4
2014-Aug-25 12:34N 53°22' E 006°59'1514.5
2014-Aug-25 11:33N 53°33' E 006°43'1414.5
2014-Aug-25 10:33N 53°38' E 006°20'9 8.7
2014-Aug-25 09:33N 53°40' E 006°06'1615.8
2014-Aug-25 08:34N 53°35' E 005°40'1716.8
2014-Aug-25 07:34N 53°30' E 005°13'1717.2
2014-Aug-25 06:34N 53°24' E 004°46'1716.8
2014-Aug-25 05:33N 53°10' E 004°32'1817.5
2014-Aug-25 04:31N 52°54' E 004°17'1616.9
2014-Aug-25 03:33N 52°41' E 004°00'1717.0
2014-Aug-25 02:34N 52°29' E 003°41'1717.1
2014-Aug-25 01:32N 52°17' E 003°20'1717.0
2014-Aug-25 00:33N 52°05' E 003°02'1616.4
2014-Aug-24 23:33N 51°56' E 002°39'1615.9
2014-Aug-24 22:33N 51°48' E 002°17'1515.4
2014-Aug-24 21:34N 51°39' E 001°57'1514.8
2014-Aug-24 20:34N 51°30' E 001°38'9 9.3
2014-Aug-24 19:34N 51°28' E 001°23'1312.5
2014-Aug-24 18:34N 51°30' E 001°03'1212.4
2014-Aug-24 17:33N 51°26' E 000°44'0 0.2
2014-Aug-24 16:32N 51°26' E 000°44'0 0.0
2014-Aug-24 15:32N 51°26' E 000°44'0 0.0
2014-Aug-24 14:32N 51°26' E 000°44'0 0.0
2014-Aug-24 13:32N 51°26' E 000°44'0 0.0
2014-Aug-24 12:32N 51°26' E 000°44'0 0.0
2014-Aug-24 11:32N 51°26' E 000°44'0 0.0
2014-Aug-24 10:33N 51°26' E 000°44'9 8.6
2014-Aug-24 09:34N 51°29' E 000°57'1716.6
2014-Aug-24 08:34N 51°29' E 001°24'1111.1
2014-Aug-24 07:34N 51°31' E 001°42'1818.0
2014-Aug-24 06:34N 51°41' E 002°06'1817.5
2014-Aug-24 05:33N 51°50' E 002°30'12816.0
2014-Aug-23 21:33N 53°31' E 004°42'  

Dump ship's entire track history